Time;durP1;ratioP1;P1;durP2;ratioP2;P2;SDS_P1;SDS_P2;PMS_P1;PMS_P2;Temp;Humidity;BMP_temperature;BMP_pressure;BME280_temperature;BME280_humidity;BME280_pressure;Samples;Min_cycle;Max_cycle;Signal;HPM_P1;HPM_P2
2021/11/20 00:02:23;;;;;;;7.82;4.20;;;14.10;97.90;;;;;;4972945;28;20481;-63
2021/11/20 00:04:49;;;;;;;15.77;6.15;;;14.10;97.80;;;;;;4974177;28;20026;-63
2021/11/20 00:07:17;;;;;;;9.38;5.72;;;14.10;97.80;;;;;;4969956;28;20030;-64
2021/11/20 00:09:43;;;;;;;10.10;4.90;;;14.10;98.10;;;;;;4972159;28;20065;-63
2021/11/20 00:12:14;;;;;;;7.80;4.60;;;14.10;97.90;;;;;;4974812;28;20035;-63
2021/11/20 00:14:40;;;;;;;10.07;4.60;;;14.10;97.90;;;;;;4960996;28;20035;-63
2021/11/20 00:17:06;;;;;;;7.45;4.50;;;14.10;98.10;;;;;;4973018;28;20043;-63
2021/11/20 00:19:33;;;;;;;8.00;4.07;;;14.10;97.90;;;;;;4972772;28;20054;-64
2021/11/20 00:22:08;;;;;;;9.52;4.50;;;14.20;97.90;;;;;;4973885;28;20027;-64
2021/11/20 00:24:48;;;;;;;8.43;4.70;;;14.10;98.00;;;;;;4970761;28;20105;-63
2021/11/20 00:27:21;;;;;;;10.38;5.15;;;14.10;98.00;;;;;;4973791;28;20139;-63
2021/11/20 00:29:59;;;;;;;10.18;5.18;;;14.10;97.90;;;;;;4974162;28;20097;-63
2021/11/20 00:32:29;;;;;;;7.68;4.57;;;14.10;98.00;;;;;;4969008;28;20117;-64
2021/11/20 00:35:01;;;;;;;6.63;4.40;;;14.10;97.90;;;;;;4973046;28;20034;-64
2021/11/20 00:37:27;;;;;;;9.20;4.20;;;14.10;97.90;;;;;;4972173;28;20126;-64
2021/11/20 00:39:53;;;;;;;6.82;4.60;;;14.20;98.00;;;;;;4952439;28;20094;-63
2021/11/20 00:42:19;;;;;;;7.95;4.60;;;14.20;98.20;;;;;;4964895;28;20031;-64
2021/11/20 00:44:46;;;;;;;8.77;4.32;;;14.20;98.00;;;;;;4951205;28;20035;-63
2021/11/20 00:47:11;;;;;;;8.30;4.75;;;14.20;98.00;;;;;;4974152;28;20374;-63
2021/11/20 00:49:37;;;;;;;10.20;4.78;;;14.20;98.00;;;;;;4972363;28;20046;-63
2021/11/20 00:52:03;;;;;;;5.57;4.32;;;14.20;98.10;;;;;;4973152;28;20049;-63
2021/11/20 00:54:29;;;;;;;10.43;4.32;;;14.20;97.90;;;;;;4972001;28;20113;-63
2021/11/20 00:56:55;;;;;;;6.97;4.07;;;14.20;97.90;;;;;;4972987;28;20149;-63
2021/11/20 00:59:22;;;;;;;8.38;4.35;;;14.20;97.90;;;;;;4972674;28;20046;-63
2021/11/20 01:01:55;;;;;;;7.00;4.53;;;14.20;97.90;;;;;;4973736;28;20030;-63
2021/11/20 01:04:23;;;;;;;8.80;4.85;;;14.10;98.00;;;;;;4972321;28;20122;-63
2021/11/20 01:06:49;;;;;;;10.00;4.35;;;14.20;98.00;;;;;;4973623;28;20023;-63
2021/11/20 01:09:18;;;;;;;7.63;4.13;;;14.20;98.00;;;;;;4970873;28;20045;-63
2021/11/20 01:11:57;;;;;;;7.95;4.07;;;14.20;98.00;;;;;;4973276;28;20404;-63
2021/11/20 01:14:25;;;;;;;9.35;4.60;;;14.20;98.00;;;;;;4971398;28;20031;-65
2021/11/20 01:16:53;;;;;;;10.30;4.40;;;14.20;98.00;;;;;;4973527;28;20072;-64
2021/11/20 01:19:20;;;;;;;11.27;4.10;;;14.20;98.00;;;;;;4955416;28;20042;-64
2021/11/20 01:21:48;;;;;;;8.00;3.80;;;14.20;98.00;;;;;;4973021;28;20033;-64
2021/11/20 01:24:14;;;;;;;8.15;3.60;;;14.20;98.00;;;;;;4971676;28;20034;-63
2021/11/20 01:26:40;;;;;;;8.40;3.90;;;14.20;98.00;;;;;;4972229;28;20105;-63
2021/11/20 01:29:08;;;;;;;6.85;4.05;;;14.20;98.00;;;;;;4973266;28;20030;-64
2021/11/20 01:31:36;;;;;;;10.18;6.97;;;14.20;98.00;;;;;;4972225;28;20027;-63
2021/11/20 01:34:03;;;;;;;8.15;4.47;;;14.20;98.10;;;;;;4972540;28;20367;-64
2021/11/20 01:36:31;;;;;;;10.15;4.38;;;14.20;98.10;;;;;;4969458;28;20027;-64
2021/11/20 01:38:58;;;;;;;6.55;4.40;;;14.10;98.10;;;;;;4972537;28;20054;-63
2021/11/20 01:41:27;;;;;;;10.50;4.63;;;14.10;98.10;;;;;;4952921;28;20497;-65
2021/11/20 01:43:55;;;;;;;6.05;4.32;;;14.10;98.10;;;;;;4963098;28;20581;-63
2021/11/20 01:46:25;;;;;;;8.80;3.92;;;14.20;98.10;;;;;;4970210;28;20019;-63
2021/11/20 01:49:27;;;;;;;7.30;3.88;;;14.10;98.10;;;;;;4972654;28;20595;-63
2021/11/20 01:52:13;;;;;;;6.80;3.95;;;14.20;98.10;;;;;;4954001;29;20063;-63
2021/11/20 01:54:43;;;;;;;9.10;4.43;;;14.10;98.10;;;;;;4970409;28;20027;-63
2021/11/20 01:57:28;;;;;;;5.18;3.80;;;14.10;98.10;;;;;;4972381;28;20054;-63
2021/11/20 02:00:32;;;;;;;8.48;3.95;;;14.10;98.10;;;;;;4965077;28;20035;-63
2021/11/20 02:03:15;;;;;;;6.78;3.70;;;14.10;98.20;;;;;;4957421;28;20045;-62
2021/11/20 02:06:08;;;;;;;8.38;3.65;;;14.00;98.20;;;;;;4969948;28;20030;-63
2021/11/20 02:08:46;;;;;;;6.88;3.80;;;14.00;98.20;;;;;;4971239;28;20035;-63
2021/11/20 02:11:26;;;;;;;7.15;3.30;;;14.00;98.20;;;;;;4964863;28;20058;-62
2021/11/20 02:13:52;;;;;;;6.05;3.33;;;14.00;98.30;;;;;;4969299;28;20039;-63
2021/11/20 02:16:26;;;;;;;8.32;3.15;;;14.00;98.30;;;;;;4970753;28;20037;-63
2021/11/20 02:18:56;;;;;;;6.40;3.87;;;14.00;98.30;;;;;;4972785;28;20134;-62
2021/11/20 02:21:24;;;;;;;8.75;3.35;;;14.00;98.30;;;;;;4971785;28;20105;-62
2021/11/20 02:23:56;;;;;;;10.57;4.18;;;14.00;98.40;;;;;;4972782;28;20046;-63
2021/11/20 02:26:22;;;;;;;7.22;3.60;;;14.00;98.40;;;;;;4967779;28;20038;-63
2021/11/20 02:28:49;;;;;;;7.30;3.15;;;14.00;98.40;;;;;;4971054;28;20417;-63
2021/11/20 02:31:16;;;;;;;6.32;3.30;;;13.90;98.30;;;;;;4971598;28;20027;-63
2021/11/20 02:33:43;;;;;;;4.30;3.10;;;14.00;98.40;;;;;;4971615;28;20110;-63
2021/11/20 02:36:15;;;;;;;6.18;2.60;;;14.00;98.40;;;;;;4971568;28;20058;-63
2021/11/20 02:38:50;;;;;;;3.78;2.78;;;13.90;98.40;;;;;;4971979;28;20077;-63
2021/11/20 02:41:18;;;;;;;7.05;3.13;;;13.90;98.40;;;;;;4957716;28;20089;-64
2021/11/20 02:43:47;;;;;;;4.93;2.90;;;13.90;98.40;;;;;;4971628;28;21565;-65
2021/11/20 02:46:16;;;;;;;6.00;3.00;;;14.00;98.50;;;;;;4971966;28;20027;-64
2021/11/20 02:48:41;;;;;;;6.35;3.40;;;13.90;98.50;;;;;;4971842;28;20062;-64
2021/11/20 02:51:11;;;;;;;4.63;3.30;;;13.90;98.60;;;;;;4971624;28;20023;-64
2021/11/20 02:53:41;;;;;;;5.85;3.40;;;14.00;98.50;;;;;;4964507;28;20490;-64
2021/11/20 02:56:11;;;;;;;5.32;2.85;;;14.00;98.50;;;;;;4970913;28;20180;-64
2021/11/20 02:58:38;;;;;;;7.63;3.75;;;14.00;98.50;;;;;;4965239;28;20039;-64
2021/11/20 03:01:13;;;;;;;6.00;3.58;;;14.00;98.50;;;;;;4968221;28;20035;-64
2021/11/20 03:03:39;;;;;;;4.68;2.72;;;14.00;98.60;;;;;;4971932;28;20085;-64
2021/11/20 03:06:06;;;;;;;4.60;2.83;;;14.00;98.50;;;;;;4969453;28;20035;-64
2021/11/20 03:08:31;;;;;;;4.88;2.78;;;14.00;98.50;;;;;;4971816;28;20474;-64
2021/11/20 03:10:57;;;;;;;4.57;3.08;;;14.00;98.60;;;;;;4971640;28;20031;-64
2021/11/20 03:13:23;;;;;;;6.50;2.78;;;14.00;98.60;;;;;;4974879;28;20038;-64
2021/11/20 03:15:48;;;;;;;5.85;3.30;;;14.00;98.70;;;;;;4967655;28;20035;-65
2021/11/20 03:18:14;;;;;;;8.63;2.70;;;14.00;98.70;;;;;;4958289;28;20083;-65
2021/11/20 03:20:41;;;;;;;6.40;2.80;;;14.00;98.70;;;;;;4975486;28;20023;-65
2021/11/20 03:23:18;;;;;;;5.45;3.10;;;13.90;98.80;;;;;;4975060;28;20509;-65
2021/11/20 03:25:44;;;;;;;6.45;3.42;;;14.00;98.80;;;;;;4975065;28;20026;-65
2021/11/20 03:28:10;;;;;;;9.50;3.28;;;14.00;98.80;;;;;;4973948;28;20509;-64
2021/11/20 03:30:36;;;;;;;4.65;3.05;;;14.00;98.90;;;;;;4975648;28;20069;-64
2021/11/20 03:33:03;;;;;;;5.50;3.20;;;13.90;99.00;;;;;;4973333;28;20126;-64
2021/11/20 03:35:29;;;;;;;6.38;3.45;;;13.90;99.00;;;;;;4975091;28;20023;-64
2021/11/20 03:37:55;;;;;;;5.68;2.80;;;13.90;99.10;;;;;;4974207;28;20043;-64
2021/11/20 03:40:21;;;;;;;6.60;2.80;;;13.80;99.10;;;;;;4975569;28;20030;-64
2021/11/20 03:42:48;;;;;;;7.13;2.78;;;13.80;99.20;;;;;;4972170;28;20034;-64
2021/11/20 03:45:15;;;;;;;5.30;3.42;;;13.80;99.20;;;;;;4966535;28;20501;-64
2021/11/20 03:47:41;;;;;;;6.28;3.25;;;13.80;99.20;;;;;;4973855;28;20035;-64
2021/11/20 03:50:09;;;;;;;6.43;3.28;;;13.80;99.20;;;;;;4975087;28;20026;-64
2021/11/20 03:52:34;;;;;;;6.10;3.25;;;13.80;99.30;;;;;;4973101;28;20027;-64
2021/11/20 03:55:00;;;;;;;5.15;3.08;;;13.80;99.30;;;;;;4957730;28;20026;-64
2021/11/20 03:57:26;;;;;;;6.25;2.92;;;13.80;99.40;;;;;;4973537;28;20046;-64
2021/11/20 03:59:52;;;;;;;7.05;3.58;;;13.80;99.40;;;;;;4967327;28;20091;-64
2021/11/20 04:02:18;;;;;;;5.90;2.88;;;13.80;99.40;;;;;;4963916;28;20019;-64
2021/11/20 04:04:43;;;;;;;4.35;2.90;;;13.80;99.40;;;;;;4975017;28;20019;-63
2021/11/20 04:07:09;;;;;;;5.05;3.17;;;13.80;99.40;;;;;;4973056;28;20034;-63
2021/11/20 04:09:35;;;;;;;4.28;2.80;;;13.80;99.40;;;;;;4974268;28;20577;-63
2021/11/20 04:12:00;;;;;;;4.93;2.40;;;13.80;99.40;;;;;;4973137;28;20578;-63
2021/11/20 04:14:27;;;;;;;6.03;3.17;;;13.80;99.40;;;;;;4973803;28;20041;-63
2021/11/20 04:16:54;;;;;;;5.18;3.38;;;13.80;99.40;;;;;;4966279;28;20504;-63
2021/11/20 04:19:21;;;;;;;5.63;2.72;;;13.80;99.40;;;;;;4974338;28;20030;-63
2021/11/20 04:21:47;;;;;;;8.52;3.33;;;13.80;99.30;;;;;;4973488;28;20031;-63
2021/11/20 04:24:14;;;;;;;4.00;2.75;;;13.80;99.40;;;;;;4973398;28;20038;-64
2021/11/20 04:26:40;;;;;;;5.18;2.83;;;13.80;99.30;;;;;;4973027;28;20035;-64
2021/11/20 04:29:06;;;;;;;4.32;2.80;;;13.80;99.30;;;;;;4973546;28;20026;-64
2021/11/20 04:31:32;;;;;;;6.03;2.97;;;13.80;99.40;;;;;;4972719;28;20497;-64
2021/11/20 04:33:58;;;;;;;7.50;2.50;;;13.80;99.40;;;;;;4972643;28;20043;-64
2021/11/20 04:36:25;;;;;;;4.60;2.70;;;13.80;99.40;;;;;;4955765;28;20494;-64
2021/11/20 04:38:52;;;;;;;5.13;3.00;;;13.80;99.40;;;;;;4974212;28;20656;-64
2021/11/20 04:41:19;;;;;;;4.68;3.08;;;13.80;99.40;;;;;;4967431;28;20053;-64
2021/11/20 04:43:46;;;;;;;4.70;2.72;;;13.80;99.40;;;;;;4972634;28;20038;-64
2021/11/20 04:46:14;;;;;;;6.47;2.60;;;13.80;99.40;;;;;;4969774;28;20035;-64
2021/11/20 04:48:39;;;;;;;7.22;2.63;;;13.80;99.40;;;;;;4973629;28;20118;-63
2021/11/20 04:51:05;;;;;;;4.15;2.83;;;13.80;99.40;;;;;;4972173;28;20655;-64
2021/11/20 04:53:33;;;;;;;5.85;2.50;;;13.80;99.40;;;;;;4973968;28;20022;-63
2021/11/20 04:56:00;;;;;;;3.83;2.72;;;13.80;99.40;;;;;;4955204;28;20101;-65
2021/11/20 04:58:27;;;;;;;4.18;2.40;;;13.80;99.40;;;;;;4973833;28;20042;-65
2021/11/20 05:00:55;;;;;;;5.07;2.63;;;13.80;99.40;;;;;;4959577;28;20061;-64
2021/11/20 05:03:22;;;;;;;3.33;2.72;;;13.80;99.40;;;;;;4972192;28;20030;-64
2021/11/20 05:05:50;;;;;;;6.75;2.90;;;13.80;99.40;;;;;;4972895;28;20583;-65
2021/11/20 05:08:16;;;;;;;6.00;2.40;;;13.80;99.40;;;;;;4971626;28;20045;-64
2021/11/20 05:10:43;;;;;;;5.68;2.97;;;13.80;99.40;;;;;;4972859;28;20026;-64
2021/11/20 05:13:10;;;;;;;4.65;2.92;;;13.70;99.40;;;;;;4973698;28;20131;-65
2021/11/20 05:15:38;;;;;;;4.85;2.83;;;13.70;99.40;;;;;;4972542;28;20110;-64
2021/11/20 05:18:05;;;;;;;3.60;2.42;;;13.70;99.50;;;;;;4971516;28;20034;-64
2021/11/20 05:20:31;;;;;;;4.15;2.63;;;13.70;99.50;;;;;;4973303;28;20031;-64
2021/11/20 05:22:57;;;;;;;4.45;2.50;;;13.70;99.50;;;;;;4972752;28;20482;-64
2021/11/20 05:25:23;;;;;;;4.32;2.92;;;13.80;99.50;;;;;;4973395;28;20070;-64
2021/11/20 05:27:53;;;;;;;4.55;2.75;;;13.70;99.50;;;;;;4971399;28;20034;-64
2021/11/20 05:30:27;;;;;;;4.20;2.60;;;13.70;99.50;;;;;;4972438;28;20485;-64
2021/11/20 05:32:55;;;;;;;6.90;2.80;;;13.70;99.50;;;;;;4971390;28;20081;-64
2021/11/20 05:35:23;;;;;;;5.43;2.47;;;13.70;99.50;;;;;;4970713;28;20027;-64
2021/11/20 05:37:48;;;;;;;5.15;2.63;;;13.70;99.50;;;;;;4972496;28;20065;-64
2021/11/20 05:40:16;;;;;;;5.63;2.63;;;13.60;99.50;;;;;;4973063;28;20518;-64
2021/11/20 05:42:44;;;;;;;5.70;2.78;;;13.70;99.50;;;;;;4970104;28;20031;-64
2021/11/20 05:45:09;;;;;;;3.88;2.40;;;13.70;99.50;;;;;;4972304;28;20038;-64
2021/11/20 05:47:35;;;;;;;4.70;2.83;;;13.70;99.50;;;;;;4971888;28;20385;-64
2021/11/20 05:50:03;;;;;;;4.05;2.65;;;13.70;99.40;;;;;;4970855;28;20030;-64
2021/11/20 05:52:29;;;;;;;4.57;2.40;;;13.70;99.40;;;;;;4971731;28;20026;-63
2021/11/20 05:54:56;;;;;;;3.60;2.42;;;13.70;99.40;;;;;;4972286;28;20480;-64
2021/11/20 05:57:22;;;;;;;4.30;2.20;;;13.70;99.40;;;;;;4966237;28;20046;-64
2021/11/20 05:59:48;;;;;;;4.82;3.25;;;13.70;99.40;;;;;;4959142;28;20026;-64
2021/11/20 06:02:15;;;;;;;3.85;2.60;;;13.70;99.40;;;;;;4967550;28;20448;-64
2021/11/20 06:04:40;;;;;;;5.15;2.58;;;13.70;99.40;;;;;;4953920;28;20042;-64
2021/11/20 06:07:06;;;;;;;4.57;2.53;;;13.70;99.40;;;;;;4972147;28;20112;-64
2021/11/20 06:09:32;;;;;;;5.85;2.80;;;13.70;99.50;;;;;;4971789;28;20057;-64
2021/11/20 06:11:57;;;;;;;2.95;2.20;;;13.70;99.50;;;;;;4971031;28;20038;-64
2021/11/20 06:14:24;;;;;;;5.30;2.60;;;13.70;99.40;;;;;;4970951;28;20030;-64
2021/11/20 06:16:49;;;;;;;3.75;2.60;;;13.70;99.40;;;;;;4971134;28;20382;-64
2021/11/20 06:19:15;;;;;;;3.38;2.22;;;13.70;99.40;;;;;;4967822;28;20027;-64
2021/11/20 06:21:41;;;;;;;6.18;2.50;;;13.70;99.40;;;;;;4967707;28;20027;-64
2021/11/20 06:24:08;;;;;;;4.40;2.70;;;13.70;99.30;;;;;;4966642;28;20023;-64
2021/11/20 06:26:34;;;;;;;5.75;2.83;;;13.60;99.60;;;;;;4963969;28;20038;-64
2021/11/20 06:29:01;;;;;;;3.00;2.33;;;13.60;99.40;;;;;;4972904;28;20430;-64
2021/11/20 06:31:26;;;;;;;5.97;2.75;;;13.60;99.40;;;;;;4970521;28;20034;-64
2021/11/20 06:33:52;;;;;;;4.32;2.58;;;13.60;99.40;;;;;;4963552;28;20078;-64
2021/11/20 06:36:21;;;;;;;5.15;2.60;;;13.60;99.40;;;;;;4965489;28;20439;-64
2021/11/20 06:38:46;;;;;;;5.00;2.80;;;13.60;99.50;;;;;;4953210;29;20536;-65
2021/11/20 06:41:13;;;;;;;7.07;2.80;;;13.60;99.50;;;;;;4968890;28;20030;-64
2021/11/20 06:43:38;;;;;;;3.83;2.42;;;13.60;99.70;;;;;;4972484;28;20049;-63
2021/11/20 06:46:11;;;;;;;4.93;2.72;;;13.60;99.60;;;;;;4971929;28;20488;-62
2021/11/20 06:48:38;;;;;;;6.82;2.97;;;13.60;99.60;;;;;;4975970;28;20113;-63
2021/11/20 06:51:08;;;;;;;3.88;2.35;;;13.60;99.60;;;;;;4955995;28;20054;-61
2021/11/20 06:53:37;;;;;;;4.88;2.58;;;13.70;99.60;;;;;;4973947;28;20046;-64
2021/11/20 06:56:04;;;;;;;3.58;2.28;;;13.70;99.70;;;;;;4974345;28;20042;-63
2021/11/20 07:01:07;;;;;;;4.32;2.58;;;13.60;99.80;;;;;;4974048;28;20391;-63
2021/11/20 07:03:38;;;;;;;5.00;2.78;;;13.60;99.90;;;;;;4974325;28;20381;-63
2021/11/20 07:06:14;;;;;;;8.18;3.35;;;13.60;99.90;;;;;;4974156;28;20117;-64
2021/11/20 07:08:42;;;;;;;5.32;2.90;;;13.60;99.90;;;;;;4975838;28;20031;-63
2021/11/20 07:11:08;;;;;;;6.85;3.08;;;13.60;99.90;;;;;;4970471;28;20066;-64
2021/11/20 07:13:34;;;;;;;4.55;3.00;;;13.60;99.90;;;;;;4970908;28;20031;-64
2021/11/20 07:16:00;;;;;;;5.75;3.58;;;13.60;99.90;;;;;;4968666;28;20081;-64
2021/11/20 07:18:27;;;;;;;4.93;2.75;;;13.60;99.90;;;;;;4973735;28;20038;-64
2021/11/20 07:20:53;;;;;;;5.32;2.78;;;13.60;99.90;;;;;;4974775;28;20069;-63
2021/11/20 07:23:19;;;;;;;4.72;3.10;;;13.60;99.90;;;;;;4973906;28;20027;-64
2021/11/20 07:25:44;;;;;;;7.05;3.42;;;13.60;99.90;;;;;;4963961;28;20159;-64
2021/11/20 07:28:10;;;;;;;4.53;3.20;;;13.60;99.90;;;;;;4972499;28;20367;-64
2021/11/20 07:30:38;;;;;;;6.22;3.13;;;13.60;99.90;;;;;;4972216;28;20030;-64
2021/11/20 07:33:05;;;;;;;5.68;3.38;;;13.60;99.90;;;;;;4961776;28;20066;-64
2021/11/20 07:35:36;;;;;;;7.57;3.15;;;13.60;99.90;;;;;;4960579;28;20023;-64
2021/11/20 07:38:04;;;;;;;6.63;3.65;;;13.60;99.90;;;;;;4963416;28;20097;-63
2021/11/20 07:40:33;;;;;;;4.07;2.95;;;13.50;99.90;;;;;;4963137;28;20027;-64
2021/11/20 07:42:59;;;;;;;6.28;3.60;;;13.50;99.90;;;;;;4968493;28;20042;-63
2021/11/20 07:45:25;;;;;;;6.63;3.53;;;13.50;99.90;;;;;;4971177;28;20394;-63
2021/11/20 07:47:51;;;;;;;5.93;3.35;;;13.60;99.90;;;;;;4960943;28;20635;-63
2021/11/20 07:50:17;;;;;;;7.72;3.78;;;13.60;99.90;;;;;;4963682;28;20030;-63
2021/11/20 07:52:45;;;;;;;5.68;3.50;;;13.50;99.90;;;;;;4958091;28;20094;-63
2021/11/20 07:55:12;;;;;;;5.63;3.58;;;13.60;99.90;;;;;;4963357;28;20147;-64
2021/11/20 07:57:39;;;;;;;5.93;3.80;;;13.60;99.90;;;;;;4942853;28;20038;-63
2021/11/20 08:00:13;;;;;;;5.47;3.67;;;13.60;99.90;;;;;;4971786;28;20045;-64
2021/11/20 08:02:39;;;;;;;9.10;3.95;;;13.60;99.90;;;;;;4967261;28;20114;-64
2021/11/20 08:05:05;;;;;;;5.90;3.85;;;13.60;99.90;;;;;;4938678;29;20457;-64
2021/11/20 08:07:31;;;;;;;8.23;4.15;;;13.60;99.90;;;;;;4951941;28;20023;-64
2021/11/20 08:09:58;;;;;;;7.30;4.10;;;13.60;99.90;;;;;;4974884;28;20042;-64
2021/11/20 08:12:24;;;;;;;7.47;4.32;;;13.60;99.90;;;;;;4967113;28;20463;-64
2021/11/20 08:14:49;;;;;;;8.88;4.88;;;13.60;99.90;;;;;;4957734;28;20035;-64
2021/11/20 08:17:15;;;;;;;8.65;4.35;;;13.60;99.90;;;;;;4962010;28;20041;-63
2021/11/20 08:19:41;;;;;;;10.23;5.38;;;13.60;99.90;;;;;;4963703;28;20067;-64
2021/11/20 08:22:09;;;;;;;8.02;4.40;;;13.60;99.90;;;;;;4961566;28;20082;-63
2021/11/20 08:24:36;;;;;;;11.00;4.80;;;13.60;99.90;;;;;;4959785;28;20031;-63
2021/11/20 08:27:01;;;;;;;7.75;4.82;;;13.60;99.90;;;;;;4961867;28;20019;-63
2021/11/20 08:29:30;;;;;;;6.82;3.83;;;13.60;99.90;;;;;;4962138;28;20037;-63
2021/11/20 08:31:57;;;;;;;7.25;4.85;;;13.60;99.90;;;;;;4964744;28;20022;-63
2021/11/20 08:34:23;;;;;;;7.72;4.82;;;13.60;99.90;;;;;;4969663;28;20084;-63
2021/11/20 08:36:49;;;;;;;10.20;5.32;;;13.70;99.90;;;;;;4968282;28;20363;-63
2021/11/20 08:39:17;;;;;;;8.35;4.88;;;13.70;99.90;;;;;;4963710;28;20054;-63
2021/11/20 08:41:47;;;;;;;11.13;5.53;;;13.70;99.90;;;;;;4967218;28;20039;-63
2021/11/20 08:44:13;;;;;;;8.50;5.10;;;13.70;99.90;;;;;;4961486;28;20461;-63
2021/11/20 08:46:40;;;;;;;9.63;5.25;;;13.80;99.90;;;;;;4967073;28;20046;-63
2021/11/20 08:49:06;;;;;;;9.07;5.30;;;13.80;99.90;;;;;;4968091;28;20023;-63
2021/11/20 08:51:34;;;;;;;7.88;4.60;;;13.70;99.90;;;;;;4971549;28;20422;-63
2021/11/20 08:54:00;;;;;;;10.07;5.50;;;13.80;99.90;;;;;;4969081;28;20106;-64
2021/11/20 08:56:26;;;;;;;7.30;4.53;;;13.80;99.90;;;;;;4960833;28;20041;-64
2021/11/20 08:58:52;;;;;;;13.52;5.82;;;13.80;99.80;;;;;;4959571;28;20042;-63
2021/11/20 09:01:25;;;;;;;10.60;5.22;;;13.90;99.80;;;;;;4974506;28;20027;-65
2021/11/20 09:04:19;;;;;;;11.18;4.78;;;13.90;99.80;;;;;;4964872;28;20086;-64
2021/11/20 09:07:23;;;;;;;6.75;4.88;;;13.90;99.70;;;;;;4968846;28;20065;-64
2021/11/20 09:09:54;;;;;;;10.30;4.30;;;14.00;99.70;;;;;;4917862;28;20101;-64
2021/11/20 09:12:35;;;;;;;11.88;4.22;;;14.00;99.60;;;;;;4967086;28;20035;-64
2021/11/20 09:15:08;;;;;;;8.85;5.00;;;14.00;99.50;;;;;;4956061;28;20026;-64
2021/11/20 09:17:34;;;;;;;9.50;5.18;;;14.10;99.40;;;;;;4971844;28;20129;-64
2021/11/20 09:20:00;;;;;;;9.13;4.65;;;14.10;99.30;;;;;;4970697;28;20553;-63
2021/11/20 09:22:25;;;;;;;9.18;4.53;;;14.10;99.30;;;;;;4971499;28;20114;-63
2021/11/20 09:24:51;;;;;;;8.75;4.93;;;14.20;99.20;;;;;;4962852;28;20122;-63
2021/11/20 09:27:17;;;;;;;9.75;4.63;;;14.20;99.10;;;;;;4965524;28;20022;-63
2021/11/20 09:29:43;;;;;;;6.93;4.57;;;14.20;99.00;;;;;;4971268;28;20062;-63
2021/11/20 09:32:10;;;;;;;11.15;4.85;;;14.20;99.00;;;;;;4962462;28;20027;-63
2021/11/20 09:34:36;;;;;;;10.55;4.57;;;14.20;98.90;;;;;;4970102;28;20050;-63
2021/11/20 09:37:02;;;;;;;6.78;3.92;;;14.20;99.10;;;;;;4960691;28;20027;-62
2021/11/20 09:39:32;;;;;;;7.05;4.20;;;14.20;98.80;;;;;;4953798;28;20054;-63
2021/11/20 09:42:07;;;;;;;8.77;4.03;;;14.20;98.70;;;;;;4965401;28;20034;-63
2021/11/20 09:44:35;;;;;;;;;;;14.30;98.70;;;;;;4964104;28;20031;-63
2021/11/20 09:47:10;;;;;;;8.05;3.97;;;14.30;98.70;;;;;;4959066;28;20281;-63
2021/11/20 09:49:41;;;;;;;7.00;3.95;;;14.20;98.50;;;;;;4956330;28;20050;-62
2021/11/20 09:52:08;;;;;;;5.85;3.60;;;14.20;98.50;;;;;;4962771;28;20394;-62
2021/11/20 09:54:39;;;;;;;8.75;4.10;;;14.20;98.40;;;;;;4960219;28;20027;-63
2021/11/20 09:57:07;;;;;;;16.05;4.72;;;14.30;98.40;;;;;;4963403;28;20051;-63
2021/11/20 09:59:39;;;;;;;9.27;4.32;;;14.30;98.30;;;;;;4961656;28;20039;-63
2021/11/20 10:02:13;;;;;;;7.13;3.72;;;14.30;98.30;;;;;;4959771;28;20023;-62
2021/11/20 10:04:59;;;;;;;7.50;4.00;;;14.30;98.20;;;;;;4956087;28;20584;-63
2021/11/20 10:07:32;;;;;;;8.02;4.05;;;14.30;98.10;;;;;;4958411;28;20502;-63
2021/11/20 10:10:16;;;;;;;8.82;4.35;;;14.30;98.10;;;;;;4963653;28;20030;-62
2021/11/20 10:12:48;;;;;;;6.70;4.07;;;14.30;98.10;;;;;;4965581;28;20027;-62
2021/11/20 10:15:24;;;;;;;7.47;3.75;;;14.30;98.00;;;;;;4935576;29;20039;-62
2021/11/20 10:18:00;;;;;;;7.05;3.67;;;14.30;98.00;;;;;;4960763;28;20493;-62
2021/11/20 10:20:35;;;;;;;6.50;4.00;;;14.30;97.90;;;;;;4958271;28;20031;-62
2021/11/20 10:23:10;;;;;;;7.32;4.57;;;14.40;97.90;;;;;;4973151;28;20508;-62
2021/11/20 10:26:13;;;;;;;6.82;3.83;;;14.40;97.90;;;;;;4969638;28;20058;-63
2021/11/20 10:28:51;;;;;;;7.13;3.90;;;14.40;97.80;;;;;;4953391;29;20525;-62
2021/11/20 10:31:22;;;;;;;6.07;3.45;;;14.50;97.70;;;;;;4962046;28;20041;-63
2021/11/20 10:33:58;;;;;;;5.63;3.58;;;14.50;97.70;;;;;;4971628;28;20513;-62
2021/11/20 10:36:31;;;;;;;7.97;4.25;;;14.50;97.60;;;;;;4972013;28;20031;-63
2021/11/20 10:39:08;;;;;;;7.55;3.92;;;14.50;97.50;;;;;;4966681;28;20090;-63
2021/11/20 10:41:53;;;;;;;7.32;4.38;;;14.50;97.70;;;;;;4963151;28;20119;-63
2021/11/20 10:44:26;;;;;;;10.27;5.15;;;14.60;97.50;;;;;;4972226;28;20386;-63
2021/11/20 10:47:12;;;;;;;12.65;5.20;;;14.60;97.50;;;;;;4956568;28;20117;-63
2021/11/20 10:50:02;;;;;;;8.43;4.57;;;14.60;97.40;;;;;;4963965;28;20031;-63
2021/11/20 10:52:39;;;;;;;11.23;4.80;;;14.60;97.40;;;;;;4970503;28;20104;-63
2021/11/20 10:55:26;;;;;;;9.25;5.25;;;14.60;97.30;;;;;;4971874;28;20133;-63
2021/11/20 10:58:16;;;;;;;7.15;4.50;;;14.50;97.30;;;;;;4966362;28;20041;-63
2021/11/20 11:00:55;;;;;;;7.88;4.60;;;14.50;97.30;;;;;;4975169;28;20065;-63
2021/11/20 11:03:42;;;;;;;7.57;4.80;;;14.50;97.30;;;;;;4971958;28;20034;-63
2021/11/20 11:06:29;;;;;;;9.35;4.72;;;14.60;97.50;;;;;;4972099;28;20030;-63
2021/11/20 11:09:20;;;;;;;12.30;6.85;;;14.60;97.30;;;;;;4972134;28;20035;-63
2021/11/20 11:11:56;;;;;;;8.00;5.10;;;14.70;97.20;;;;;;4970855;28;20418;-63
2021/11/20 11:14:34;;;;;;;7.10;4.95;;;14.70;97.20;;;;;;4953237;28;20051;-63
2021/11/20 11:17:12;;;;;;;9.35;4.88;;;14.70;97.10;;;;;;4957654;28;20035;-63
2021/11/20 11:19:50;;;;;;;10.02;5.47;;;14.70;97.10;;;;;;4971024;28;20133;-63
2021/11/20 11:22:43;;;;;;;8.88;5.55;;;14.70;97.00;;;;;;4970843;28;20079;-63
2021/11/20 11:25:20;;;;;;;11.45;5.70;;;14.70;97.00;;;;;;4954284;28;20023;-63
2021/11/20 11:28:24;;;;;;;10.07;5.63;;;14.70;97.00;;;;;;4972902;28;20042;-63
2021/11/20 11:31:12;;;;;;;8.93;5.00;;;14.70;97.00;;;;;;4953322;28;20035;-62
2021/11/20 11:33:43;;;;;;;9.70;5.35;;;14.70;97.00;;;;;;4964763;28;20378;-61
2021/11/20 11:36:36;;;;;;;6.72;5.18;;;14.60;96.90;;;;;;4964341;28;20030;-63
2021/11/20 11:39:25;;;;;;;8.60;5.40;;;14.60;97.00;;;;;;4975355;28;20427;-63
2021/11/20 11:42:17;;;;;;;13.70;6.00;;;14.60;97.00;;;;;;4960838;28;20030;-63
2021/11/20 11:44:57;;;;;;;9.02;5.22;;;14.60;97.10;;;;;;4970833;28;20034;-63
2021/11/20 11:47:46;;;;;;;7.60;5.60;;;14.50;97.00;;;;;;4967310;28;20034;-63
2021/11/20 11:50:46;;;;;;;10.25;5.75;;;14.50;97.00;;;;;;4979392;28;20018;-63
2021/11/20 11:53:29;;;;;;;8.60;5.38;;;14.50;97.00;;;;;;4962764;28;20106;-63
2021/11/20 11:56:01;;;;;;;10.20;5.82;;;14.50;97.00;;;;;;4964266;28;20046;-63
2021/11/20 11:58:33;;;;;;;13.07;6.35;;;14.50;97.30;;;;;;4968770;28;20043;-64
2021/11/20 12:01:17;;;;;;;9.27;5.80;;;14.50;97.10;;;;;;4964715;28;20086;-63
2021/11/20 12:04:04;;;;;;;8.00;5.65;;;14.50;97.00;;;;;;4962055;28;20121;-63
2021/11/20 12:07:18;;;;;;;9.43;6.15;;;14.50;97.00;;;;;;4961695;28;20039;-64
2021/11/20 12:09:48;;;;;;;12.05;6.57;;;14.50;97.00;;;;;;4954063;28;20027;-64
2021/11/20 12:12:30;;;;;;;11.90;6.80;;;14.40;97.00;;;;;;4964979;28;20037;-65
2021/11/20 12:15:06;;;;;;;10.85;6.75;;;14.40;97.00;;;;;;4948654;29;20035;-64
2021/11/20 12:17:50;;;;;;;9.48;6.63;;;14.40;97.00;;;;;;4972067;28;20031;-65
2021/11/20 12:20:56;;;;;;;8.70;6.78;;;14.40;97.00;;;;;;4971958;28;20646;-65
2021/11/20 12:23:53;;;;;;;10.57;7.00;;;14.40;97.00;;;;;;4948263;28;20031;-64
2021/11/20 12:26:36;;;;;;;11.98;7.07;;;14.40;97.00;;;;;;4970904;28;20029;-64
2021/11/20 12:29:27;;;;;;;10.35;6.43;;;14.40;97.00;;;;;;4960263;28;20059;-65
2021/11/20 12:32:21;;;;;;;10.32;6.95;;;14.40;97.00;;;;;;4968318;28;20364;-64
2021/11/20 12:35:06;;;;;;;13.27;7.00;;;14.40;97.00;;;;;;4973004;28;20038;-65
2021/11/20 12:37:42;;;;;;;;;;;14.40;97.00;;;;;;4968621;28;20039;-64
2021/11/20 12:40:10;;;;;;;;;;;14.40;97.10;;;;;;4971635;28;19910;-65
2021/11/20 12:42:50;;;;;;;12.48;7.88;;;14.40;96.90;;;;;;4965804;28;19953;-65
2021/11/20 12:45:22;;;;;;;10.02;7.28;;;14.40;97.30;;;;;;4960790;28;20118;-64
2021/11/20 12:47:56;;;;;;;11.30;8.05;;;14.40;97.00;;;;;;4965809;28;20109;-65
2021/11/20 12:50:28;;;;;;;18.20;9.52;;;14.40;97.10;;;;;;4969095;28;20035;-64
2021/11/20 12:53:08;;;;;;;11.80;7.68;;;14.40;97.00;;;;;;4964067;28;20038;-64
2021/11/20 12:55:34;;;;;;;10.57;7.68;;;14.40;96.90;;;;;;4971137;28;20042;-64
2021/11/20 12:58:30;;;;;;;9.85;6.70;;;14.40;96.90;;;;;;4971841;28;20077;-64
2021/11/20 13:00:55;;;;;;;;;;;14.50;96.90;;;;;;4967029;28;20043;-64
2021/11/20 13:03:42;;;;;;;8.20;6.35;;;14.50;96.90;;;;;;4971037;28;20034;-64
2021/11/20 13:06:18;;;;;;;9.75;6.82;;;14.40;96.90;;;;;;4968266;28;20061;-64
2021/11/20 13:09:01;;;;;;;9.85;7.28;;;14.40;96.90;;;;;;4954450;28;20490;-65
2021/11/20 13:11:32;;;;;;;11.55;7.35;;;14.50;96.90;;;;;;4968945;28;20035;-64